sensor_id;sensor_type;location;lat;lon;timestamp;pressure;altitude;pressure_sealevel;temperature;humidity
41234;BME280;26968;42.686;23.352;2023-02-16T00:00:17;96429.22;;;0.65;nan
41234;BME280;26968;42.686;23.352;2023-02-16T00:02:44;96479.94;;;1.07;nan
41234;BME280;26968;42.686;23.352;2023-02-16T00:05:27;96503.09;;;1.25;nan
41234;BME280;26968;42.686;23.352;2023-02-16T00:07:55;96502.75;;;1.28;nan
41234;BME280;26968;42.686;23.352;2023-02-16T00:10:22;96503.72;;;1.27;nan
41234;BME280;26968;42.686;23.352;2023-02-16T00:12:49;96499.50;;;1.26;nan
41234;BME280;26968;42.686;23.352;2023-02-16T00:15:34;96509.03;;;1.33;nan
41234;BME280;26968;42.686;23.352;2023-02-16T00:18:11;96500.75;;;1.30;nan
41234;BME280;26968;42.686;23.352;2023-02-16T00:20:40;96497.75;;;1.33;nan
41234;BME280;26968;42.686;23.352;2023-02-16T00:23:06;96354.34;;;0.36;nan
41234;BME280;26968;42.686;23.352;2023-02-16T00:25:34;96462.50;;;0.78;nan
41234;BME280;26968;42.686;23.352;2023-02-16T00:28:06;96477.25;;;1.00;nan
41234;BME280;26968;42.686;23.352;2023-02-16T00:30:33;96472.78;;;0.94;nan
41234;BME280;26968;42.686;23.352;2023-02-16T00:33:01;96490.41;;;1.07;nan
41234;BME280;26968;42.686;23.352;2023-02-16T00:35:28;96460.38;;;0.82;nan
41234;BME280;26968;42.686;23.352;2023-02-16T00:38:00;96492.50;;;1.11;nan
41234;BME280;26968;42.686;23.352;2023-02-16T00:40:27;96402.38;;;0.57;nan
41234;BME280;26968;42.686;23.352;2023-02-16T00:42:53;96498.16;;;1.00;nan
41234;BME280;26968;42.686;23.352;2023-02-16T00:45:21;96489.16;;;1.03;nan
41234;BME280;26968;42.686;23.352;2023-02-16T00:47:48;96498.88;;;1.09;nan
41234;BME280;26968;42.686;23.352;2023-02-16T00:50:31;96392.44;;;0.46;nan
41234;BME280;26968;42.686;23.352;2023-02-16T00:52:58;96495.44;;;1.08;nan
41234;BME280;26968;42.686;23.352;2023-02-16T00:55:29;96491.41;;;1.06;nan
41234;BME280;26968;42.686;23.352;2023-02-16T01:00:50;96498.44;;;1.05;nan
41234;BME280;26968;42.686;23.352;2023-02-16T01:03:22;96492.59;;;1.03;nan
41234;BME280;26968;42.686;23.352;2023-02-16T01:05:48;96444.72;;;0.67;nan
41234;BME280;26968;42.686;23.352;2023-02-16T01:08:34;96320.16;;;-0.13;nan
41234;BME280;26968;42.686;23.352;2023-02-16T01:11:18;96378.75;;;0.29;nan
41234;BME280;26968;42.686;23.352;2023-02-16T01:13:47;96484.50;;;0.98;nan
41234;BME280;26968;42.686;23.352;2023-02-16T01:18:40;96446.69;;;0.65;nan
41234;BME280;26968;42.686;23.352;2023-02-16T01:21:05;96399.78;;;0.42;nan
41234;BME280;26968;42.686;23.352;2023-02-16T01:23:31;96471.53;;;0.90;nan
41234;BME280;26968;42.686;23.352;2023-02-16T01:25:56;96470.72;;;0.90;nan
41234;BME280;26968;42.686;23.352;2023-02-16T01:28:23;96429.66;;;0.54;nan
41234;BME280;26968;42.686;23.352;2023-02-16T01:30:50;96439.50;;;0.67;nan
41234;BME280;26968;42.686;23.352;2023-02-16T01:33:16;96393.84;;;0.33;nan
41234;BME280;26968;42.686;23.352;2023-02-16T01:35:42;96310.81;;;-0.22;nan
41234;BME280;26968;42.686;23.352;2023-02-16T01:38:19;96359.59;;;0.07;nan
41234;BME280;26968;42.686;23.352;2023-02-16T01:40:53;96446.84;;;0.49;nan
41234;BME280;26968;42.686;23.352;2023-02-16T01:43:28;96384.56;;;0.02;nan
41234;BME280;26968;42.686;23.352;2023-02-16T01:46:11;96411.94;;;0.20;nan
41234;BME280;26968;42.686;23.352;2023-02-16T01:48:38;96351.00;;;-0.16;nan
41234;BME280;26968;42.686;23.352;2023-02-16T01:51:34;96450.91;;;0.51;nan
41234;BME280;26968;42.686;23.352;2023-02-16T01:56:57;96367.56;;;-0.09;nan
41234;BME280;26968;42.686;23.352;2023-02-16T02:04:41;96449.56;;;0.41;nan
41234;BME280;26968;42.686;23.352;2023-02-16T02:07:32;96441.91;;;0.39;nan
41234;BME280;26968;42.686;23.352;2023-02-16T02:12:49;96425.88;;;0.27;nan
41234;BME280;26968;42.686;23.352;2023-02-16T02:15:24;96369.06;;;-0.15;nan
41234;BME280;26968;42.686;23.352;2023-02-16T02:17:51;96423.09;;;0.29;nan
41234;BME280;26968;42.686;23.352;2023-02-16T02:29:19;96445.59;;;0.45;nan
41234;BME280;26968;42.686;23.352;2023-02-16T02:35:07;96445.53;;;0.38;nan
41234;BME280;26968;42.686;23.352;2023-02-16T02:43:45;96444.25;;;0.34;nan
41234;BME280;26968;42.686;23.352;2023-02-16T02:48:39;96444.25;;;0.34;nan
41234;BME280;26968;42.686;23.352;2023-02-16T02:51:14;96374.75;;;-0.11;nan
41234;BME280;26968;42.686;23.352;2023-02-16T02:54:03;96439.75;;;0.28;nan
41234;BME280;26968;42.686;23.352;2023-02-16T02:57:04;96360.13;;;-0.35;nan
41234;BME280;26968;42.686;23.352;2023-02-16T02:59:59;96313.09;;;-0.56;nan
41234;BME280;26968;42.686;23.352;2023-02-16T03:02:45;96384.44;;;-0.20;nan
41234;BME280;26968;42.686;23.352;2023-02-16T03:05:14;96437.03;;;0.07;nan
41234;BME280;26968;42.686;23.352;2023-02-16T03:07:43;96304.94;;;-0.76;nan
41234;BME280;26968;42.686;23.352;2023-02-16T03:10:16;96450.09;;;0.21;nan
41234;BME280;26968;42.686;23.352;2023-02-16T03:13:03;96449.44;;;0.19;nan
41234;BME280;26968;42.686;23.352;2023-02-16T03:15:30;96447.81;;;0.18;nan
41234;BME280;26968;42.686;23.352;2023-02-16T03:17:57;96426.38;;;0.08;nan
41234;BME280;26968;42.686;23.352;2023-02-16T03:20:42;96292.47;;;-0.81;nan
41234;BME280;26968;42.686;23.352;2023-02-16T03:23:29;96447.38;;;0.15;nan
41234;BME280;26968;42.686;23.352;2023-02-16T03:26:13;96381.97;;;-0.36;nan
41234;BME280;26968;42.686;23.352;2023-02-16T03:28:59;96309.06;;;-0.82;nan
41234;BME280;26968;42.686;23.352;2023-02-16T03:31:45;96382.00;;;-0.21;nan
41234;BME280;26968;42.686;23.352;2023-02-16T03:34:11;96353.13;;;-0.34;nan
41234;BME280;26968;42.686;23.352;2023-02-16T03:36:39;96374.25;;;-0.29;nan
41234;BME280;26968;42.686;23.352;2023-02-16T03:39:05;96345.94;;;-0.47;nan
41234;BME280;26968;42.686;23.352;2023-02-16T03:41:32;96306.06;;;-0.70;nan
41234;BME280;26968;42.686;23.352;2023-02-16T03:43:58;96437.28;;;0.12;nan
41234;BME280;26968;42.686;23.352;2023-02-16T03:46:24;96387.91;;;-0.42;nan
41234;BME280;26968;42.686;23.352;2023-02-16T03:48:49;96371.91;;;-0.39;nan
41234;BME280;26968;42.686;23.352;2023-02-16T03:51:15;96344.09;;;-0.61;nan
41234;BME280;26968;42.686;23.352;2023-02-16T03:53:40;96413.75;;;-0.18;nan
41234;BME280;26968;42.686;23.352;2023-02-16T03:56:05;96339.50;;;-0.82;nan
41234;BME280;26968;42.686;23.352;2023-02-16T03:58:31;96425.19;;;-0.19;nan
41234;BME280;26968;42.686;23.352;2023-02-16T04:00:58;96392.94;;;-0.41;nan
41234;BME280;26968;42.686;23.352;2023-02-16T04:03:24;96389.16;;;-0.38;nan
41234;BME280;26968;42.686;23.352;2023-02-16T04:05:49;96421.59;;;-0.18;nan
41234;BME280;26968;42.686;23.352;2023-02-16T04:08:15;96401.19;;;-0.37;nan
41234;BME280;26968;42.686;23.352;2023-02-16T04:10:40;96358.38;;;-0.57;nan
41234;BME280;26968;42.686;23.352;2023-02-16T04:13:06;96320.41;;;-0.74;nan
41234;BME280;26968;42.686;23.352;2023-02-16T04:15:32;96331.13;;;-0.69;nan
41234;BME280;26968;42.686;23.352;2023-02-16T04:17:58;96346.34;;;-0.58;nan
41234;BME280;26968;42.686;23.352;2023-02-16T04:20:27;96340.03;;;-0.64;nan
41234;BME280;26968;42.686;23.352;2023-02-16T04:22:53;96380.72;;;-0.40;nan
41234;BME280;26968;42.686;23.352;2023-02-16T04:25:19;96427.16;;;-0.06;nan
41234;BME280;26968;42.686;23.352;2023-02-16T04:27:45;96392.41;;;-0.36;nan
41234;BME280;26968;42.686;23.352;2023-02-16T04:30:14;96426.91;;;-0.11;nan
41234;BME280;26968;42.686;23.352;2023-02-16T04:32:40;96370.88;;;-0.53;nan
41234;BME280;26968;42.686;23.352;2023-02-16T04:35:06;96434.00;;;-0.05;nan
41234;BME280;26968;42.686;23.352;2023-02-16T04:37:32;96410.69;;;-0.21;nan
41234;BME280;26968;42.686;23.352;2023-02-16T04:39:57;96395.38;;;-0.39;nan
41234;BME280;26968;42.686;23.352;2023-02-16T04:42:23;96437.50;;;-0.13;nan
41234;BME280;26968;42.686;23.352;2023-02-16T04:44:48;96316.94;;;-0.90;nan
41234;BME280;26968;42.686;23.352;2023-02-16T04:47:14;96345.84;;;-0.76;nan
41234;BME280;26968;42.686;23.352;2023-02-16T04:49:39;96376.44;;;-0.56;nan
41234;BME280;26968;42.686;23.352;2023-02-16T04:52:05;96371.25;;;-0.56;nan
41234;BME280;26968;42.686;23.352;2023-02-16T04:54:31;96322.81;;;-0.88;nan
41234;BME280;26968;42.686;23.352;2023-02-16T04:56:57;96291.91;;;-1.13;nan
41234;BME280;26968;42.686;23.352;2023-02-16T04:59:22;96403.44;;;-0.49;nan
41234;BME280;26968;42.686;23.352;2023-02-16T05:01:48;96446.19;;;-0.20;nan
41234;BME280;26968;42.686;23.352;2023-02-16T05:04:13;96445.38;;;-0.21;nan
41234;BME280;26968;42.686;23.352;2023-02-16T05:06:39;96447.34;;;-0.23;nan
41234;BME280;26968;42.686;23.352;2023-02-16T05:09:05;96421.25;;;-0.38;nan
41234;BME280;26968;42.686;23.352;2023-02-16T05:11:31;96437.69;;;-0.37;nan
41234;BME280;26968;42.686;23.352;2023-02-16T05:14:22;96457.06;;;-0.31;nan
41234;BME280;26968;42.686;23.352;2023-02-16T05:17:11;96341.09;;;-0.96;nan
41234;BME280;26968;42.686;23.352;2023-02-16T05:19:37;96453.81;;;-0.33;nan
41234;BME280;26968;42.686;23.352;2023-02-16T05:22:03;96431.63;;;-0.52;nan
41234;BME280;26968;42.686;23.352;2023-02-16T05:24:29;96436.81;;;-0.52;nan
41234;BME280;26968;42.686;23.352;2023-02-16T05:26:55;96456.63;;;-0.43;nan
41234;BME280;26968;42.686;23.352;2023-02-16T05:29:20;96362.00;;;-1.12;nan
41234;BME280;26968;42.686;23.352;2023-02-16T05:31:46;96416.19;;;-0.76;nan
41234;BME280;26968;42.686;23.352;2023-02-16T05:34:12;96460.94;;;-0.50;nan
41234;BME280;26968;42.686;23.352;2023-02-16T05:36:37;96419.13;;;-0.80;nan
41234;BME280;26968;42.686;23.352;2023-02-16T05:39:03;96460.94;;;-0.50;nan
41234;BME280;26968;42.686;23.352;2023-02-16T05:41:28;96452.72;;;-0.62;nan
41234;BME280;26968;42.686;23.352;2023-02-16T05:43:56;96466.63;;;-0.47;nan
41234;BME280;26968;42.686;23.352;2023-02-16T05:46:23;96339.16;;;-1.25;nan
41234;BME280;26968;42.686;23.352;2023-02-16T05:48:49;96433.75;;;-0.79;nan
41234;BME280;26968;42.686;23.352;2023-02-16T05:51:15;96360.28;;;-1.20;nan
41234;BME280;26968;42.686;23.352;2023-02-16T05:53:41;96479.94;;;-0.42;nan
41234;BME280;26968;42.686;23.352;2023-02-16T05:56:07;96411.63;;;-0.83;nan
41234;BME280;26968;42.686;23.352;2023-02-16T05:58:32;96404.19;;;-0.86;nan
41234;BME280;26968;42.686;23.352;2023-02-16T06:00:58;96446.63;;;-0.54;nan
41234;BME280;26968;42.686;23.352;2023-02-16T06:03:24;96321.09;;;-1.26;nan
41234;BME280;26968;42.686;23.352;2023-02-16T06:05:57;96435.56;;;-0.56;nan
41234;BME280;26968;42.686;23.352;2023-02-16T06:08:23;96481.50;;;-0.32;nan
41234;BME280;26968;42.686;23.352;2023-02-16T06:10:50;96490.59;;;-0.28;nan
41234;BME280;26968;42.686;23.352;2023-02-16T06:13:17;96315.50;;;-1.38;nan
41234;BME280;26968;42.686;23.352;2023-02-16T06:15:43;96338.72;;;-1.36;nan
41234;BME280;26968;42.686;23.352;2023-02-16T06:18:09;96427.25;;;-0.83;nan
41234;BME280;26968;42.686;23.352;2023-02-16T06:20:37;96379.78;;;-1.15;nan
41234;BME280;26968;42.686;23.352;2023-02-16T06:23:02;96409.34;;;-1.08;nan
41234;BME280;26968;42.686;23.352;2023-02-16T06:25:28;96458.06;;;-0.86;nan
41234;BME280;26968;42.686;23.352;2023-02-16T06:27:53;96415.06;;;-1.13;nan
41234;BME280;26968;42.686;23.352;2023-02-16T06:30:24;96439.81;;;-0.86;nan
41234;BME280;26968;42.686;23.352;2023-02-16T06:32:49;96438.09;;;-0.94;nan
41234;BME280;26968;42.686;23.352;2023-02-16T06:35:15;96412.09;;;-1.02;nan
41234;BME280;26968;42.686;23.352;2023-02-16T06:37:41;96398.53;;;-1.28;nan
41234;BME280;26968;42.686;23.352;2023-02-16T06:40:06;96419.00;;;-1.17;nan
41234;BME280;26968;42.686;23.352;2023-02-16T06:42:34;96406.09;;;-1.10;nan
41234;BME280;26968;42.686;23.352;2023-02-16T06:45:00;96476.91;;;-0.53;nan
41234;BME280;26968;42.686;23.352;2023-02-16T06:47:25;96427.00;;;-0.96;nan
41234;BME280;26968;42.686;23.352;2023-02-16T06:49:51;96499.69;;;-0.47;nan
41234;BME280;26968;42.686;23.352;2023-02-16T06:52:16;96418.41;;;-0.73;nan
41234;BME280;26968;42.686;23.352;2023-02-16T06:54:42;96486.66;;;-0.24;nan
41234;BME280;26968;42.686;23.352;2023-02-16T06:57:07;96463.31;;;-0.41;nan
41234;BME280;26968;42.686;23.352;2023-02-16T06:59:32;96335.94;;;-1.04;nan
41234;BME280;26968;42.686;23.352;2023-02-16T07:01:58;96441.66;;;-0.41;nan
41234;BME280;26968;42.686;23.352;2023-02-16T07:04:23;96416.84;;;-0.37;nan
41234;BME280;26968;42.686;23.352;2023-02-16T07:06:49;96466.00;;;-0.11;nan
41234;BME280;26968;42.686;23.352;2023-02-16T07:09:15;96511.78;;;0.14;nan
41234;BME280;26968;42.686;23.352;2023-02-16T07:11:42;96420.38;;;-0.30;nan
41234;BME280;26968;42.686;23.352;2023-02-16T07:14:07;96506.88;;;0.34;nan
41234;BME280;26968;42.686;23.352;2023-02-16T07:16:33;96473.19;;;0.24;nan
41234;BME280;26968;42.686;23.352;2023-02-16T07:18:58;96499.88;;;0.49;nan
41234;BME280;26968;42.686;23.352;2023-02-16T07:21:24;96476.63;;;0.39;nan
41234;BME280;26968;42.686;23.352;2023-02-16T07:23:49;96481.50;;;0.57;nan
41234;BME280;26968;42.686;23.352;2023-02-16T07:26:15;96421.28;;;0.15;nan
41234;BME280;26968;42.686;23.352;2023-02-16T07:28:40;96394.91;;;0.10;nan
41234;BME280;26968;42.686;23.352;2023-02-16T07:31:11;96487.72;;;0.71;nan
41234;BME280;26968;42.686;23.352;2023-02-16T07:33:37;96404.28;;;0.19;nan
41234;BME280;26968;42.686;23.352;2023-02-16T07:36:03;96419.78;;;0.35;nan
41234;BME280;26968;42.686;23.352;2023-02-16T07:38:29;96471.06;;;0.72;nan
41234;BME280;26968;42.686;23.352;2023-02-16T07:40:55;96326.53;;;-0.15;nan
41234;BME280;26968;42.686;23.352;2023-02-16T07:43:22;96484.22;;;0.78;nan
41234;BME280;26968;42.686;23.352;2023-02-16T07:45:47;96398.16;;;0.41;nan
41234;BME280;26968;42.686;23.352;2023-02-16T07:48:13;96476.44;;;1.00;nan
41234;BME280;26968;42.686;23.352;2023-02-16T07:50:39;96328.88;;;0.09;nan
41234;BME280;26968;42.686;23.352;2023-02-16T07:53:04;96483.19;;;1.09;nan
41234;BME280;26968;42.686;23.352;2023-02-16T07:55:30;96482.47;;;1.15;nan
41234;BME280;26968;42.686;23.352;2023-02-16T07:57:55;96431.72;;;0.88;nan
41234;BME280;26968;42.686;23.352;2023-02-16T08:00:21;96428.13;;;0.89;nan
41234;BME280;26968;42.686;23.352;2023-02-16T08:02:47;96488.03;;;1.27;nan
41234;BME280;26968;42.686;23.352;2023-02-16T08:05:12;96407.31;;;0.81;nan
41234;BME280;26968;42.686;23.352;2023-02-16T08:07:38;96434.41;;;0.95;nan
41234;BME280;26968;42.686;23.352;2023-02-16T08:10:05;96484.63;;;1.26;nan
41234;BME280;26968;42.686;23.352;2023-02-16T08:12:31;96488.59;;;1.07;nan
41234;BME280;26968;42.686;23.352;2023-02-16T08:14:56;96436.97;;;0.73;nan
41234;BME280;26968;42.686;23.352;2023-02-16T08:17:22;96503.38;;;1.15;nan
41234;BME280;26968;42.686;23.352;2023-02-16T08:19:48;96412.00;;;0.71;nan
41234;BME280;26968;42.686;23.352;2023-02-16T08:22:16;96496.81;;;1.19;nan
41234;BME280;26968;42.686;23.352;2023-02-16T08:24:49;96455.78;;;0.84;nan
41234;BME280;26968;42.686;23.352;2023-02-16T08:27:15;96459.97;;;0.85;nan
41234;BME280;26968;42.686;23.352;2023-02-16T08:29:41;96475.38;;;1.09;nan
41234;BME280;26968;42.686;23.352;2023-02-16T08:32:10;96418.69;;;0.73;nan
41234;BME280;26968;42.686;23.352;2023-02-16T08:34:35;96483.38;;;1.07;nan
41234;BME280;26968;42.686;23.352;2023-02-16T08:37:01;96394.47;;;0.65;nan
41234;BME280;26968;42.686;23.352;2023-02-16T08:39:29;96371.81;;;0.51;nan
41234;BME280;26968;42.686;23.352;2023-02-16T08:41:55;96462.03;;;1.19;nan
41234;BME280;26968;42.686;23.352;2023-02-16T08:44:24;96417.56;;;0.97;nan
41234;BME280;26968;42.686;23.352;2023-02-16T08:46:51;96425.78;;;1.15;nan
41234;BME280;26968;42.686;23.352;2023-02-16T08:49:20;96497.50;;;1.64;nan
41234;BME280;26968;42.686;23.352;2023-02-16T08:51:53;96495.41;;;1.74;nan
41234;BME280;26968;42.686;23.352;2023-02-16T08:54:21;96454.59;;;1.58;nan
41234;BME280;26968;42.686;23.352;2023-02-16T08:56:48;96478.72;;;1.75;nan
41234;BME280;26968;42.686;23.352;2023-02-16T08:59:15;96484.00;;;2.03;nan
41234;BME280;26968;42.686;23.352;2023-02-16T09:01:41;96492.88;;;2.08;nan
41234;BME280;26968;42.686;23.352;2023-02-16T09:04:07;96469.47;;;2.00;nan
41234;BME280;26968;42.686;23.352;2023-02-16T09:06:36;96410.94;;;1.80;nan
41234;BME280;26968;42.686;23.352;2023-02-16T09:09:03;96483.63;;;2.33;nan
41234;BME280;26968;42.686;23.352;2023-02-16T09:11:29;96429.34;;;1.93;nan
41234;BME280;26968;42.686;23.352;2023-02-16T09:13:55;96402.88;;;1.75;nan
41234;BME280;26968;42.686;23.352;2023-02-16T09:16:23;96318.22;;;1.33;nan
41234;BME280;26968;42.686;23.352;2023-02-16T09:18:50;96485.97;;;2.50;nan
41234;BME280;26968;42.686;23.352;2023-02-16T09:21:19;96456.72;;;2.46;nan
41234;BME280;26968;42.686;23.352;2023-02-16T09:23:47;96480.19;;;2.61;nan
41234;BME280;26968;42.686;23.352;2023-02-16T09:26:14;96403.16;;;2.14;nan
41234;BME280;26968;42.686;23.352;2023-02-16T09:28:40;96473.06;;;2.48;nan
41234;BME280;26968;42.686;23.352;2023-02-16T09:31:28;96363.78;;;1.94;nan
41234;BME280;26968;42.686;23.352;2023-02-16T09:33:59;96466.72;;;2.64;nan
41234;BME280;26968;42.686;23.352;2023-02-16T09:36:25;96337.94;;;1.85;nan
41234;BME280;26968;42.686;23.352;2023-02-16T09:38:52;96350.63;;;2.16;nan
41234;BME280;26968;42.686;23.352;2023-02-16T09:43:54;96279.59;;;1.84;nan
41234;BME280;26968;42.686;23.352;2023-02-16T09:46:22;96446.38;;;3.07;nan
41234;BME280;26968;42.686;23.352;2023-02-16T09:48:49;96438.94;;;3.04;nan
41234;BME280;26968;42.686;23.352;2023-02-16T09:51:23;96367.81;;;2.66;nan
41234;BME280;26968;42.686;23.352;2023-02-16T09:54:23;96380.19;;;2.92;nan
41234;BME280;26968;42.686;23.352;2023-02-16T09:57:25;96440.44;;;3.33;nan
41234;BME280;26968;42.686;23.352;2023-02-16T10:02:52;96393.03;;;3.34;nan
41234;BME280;26968;42.686;23.352;2023-02-16T10:05:28;96371.44;;;3.26;nan
41234;BME280;26968;42.686;23.352;2023-02-16T10:07:59;96363.38;;;3.27;nan
41234;BME280;26968;42.686;23.352;2023-02-16T10:10:48;96426.59;;;3.78;nan
41234;BME280;26968;42.686;23.352;2023-02-16T10:13:25;96339.19;;;3.32;nan
41234;BME280;26968;42.686;23.352;2023-02-16T10:15:53;96336.75;;;3.43;nan
41234;BME280;26968;42.686;23.352;2023-02-16T10:18:32;96374.31;;;3.83;nan
41234;BME280;26968;42.686;23.352;2023-02-16T10:21:07;96364.19;;;4.33;nan
41234;BME280;26968;42.686;23.352;2023-02-16T10:23:51;96401.56;;;6.07;nan
41234;BME280;26968;42.686;23.352;2023-02-16T10:26:21;96400.47;;;7.12;nan
41234;BME280;26968;42.686;23.352;2023-02-16T10:28:56;96353.88;;;8.31;nan
41234;BME280;26968;42.686;23.352;2023-02-16T10:31:24;96401.22;;;9.92;nan
41234;BME280;26968;42.686;23.352;2023-02-16T10:41:43;96339.44;;;13.56;nan
41234;BME280;26968;42.686;23.352;2023-02-16T10:44:22;96385.66;;;14.53;nan
41234;BME280;26968;42.686;23.352;2023-02-16T10:47:01;96381.00;;;15.04;nan
41234;BME280;26968;42.686;23.352;2023-02-16T10:49:29;96381.34;;;15.52;nan
41234;BME280;26968;42.686;23.352;2023-02-16T10:52:01;96381.44;;;15.26;nan
41234;BME280;26968;42.686;23.352;2023-02-16T10:54:30;96329.66;;;15.12;nan
41234;BME280;26968;42.686;23.352;2023-02-16T10:57:05;96368.59;;;15.38;nan
41234;BME280;26968;42.686;23.352;2023-02-16T10:59:43;96365.06;;;15.43;nan
41234;BME280;26968;42.686;23.352;2023-02-16T11:02:36;96350.91;;;15.48;nan
41234;BME280;26968;42.686;23.352;2023-02-16T11:07:56;96298.75;;;15.01;nan
41234;BME280;26968;42.686;23.352;2023-02-16T11:12:58;96344.34;;;15.25;nan
41234;BME280;26968;42.686;23.352;2023-02-16T11:15:25;96329.81;;;14.77;nan
41234;BME280;26968;42.686;23.352;2023-02-16T11:18:05;96324.25;;;14.58;nan
41234;BME280;26968;42.686;23.352;2023-02-16T11:23:28;96287.19;;;14.46;nan
41234;BME280;26968;42.686;23.352;2023-02-16T11:28:35;96287.72;;;14.33;nan
41234;BME280;26968;42.686;23.352;2023-02-16T11:31:11;96295.19;;;14.46;nan
41234;BME280;26968;42.686;23.352;2023-02-16T11:33:38;96327.41;;;14.65;nan
41234;BME280;26968;42.686;23.352;2023-02-16T11:39:04;96315.44;;;14.62;nan
41234;BME280;26968;42.686;23.352;2023-02-16T11:41:31;96290.13;;;14.14;nan
41234;BME280;26968;42.686;23.352;2023-02-16T11:43:58;96269.03;;;14.38;nan
41234;BME280;26968;42.686;23.352;2023-02-16T11:46:24;96284.25;;;14.48;nan
41234;BME280;26968;42.686;23.352;2023-02-16T11:48:50;96199.25;;;13.65;nan
41234;BME280;26968;42.686;23.352;2023-02-16T11:51:30;96304.19;;;14.71;nan
41234;BME280;26968;42.686;23.352;2023-02-16T11:54:03;96307.59;;;14.91;nan
41234;BME280;26968;42.686;23.352;2023-02-16T11:56:35;96295.56;;;14.94;nan
41234;BME280;26968;42.686;23.352;2023-02-16T12:07:37;96277.09;;;15.02;nan
41234;BME280;26968;42.686;23.352;2023-02-16T12:10:34;96280.97;;;15.30;nan
41234;BME280;26968;42.686;23.352;2023-02-16T12:13:22;96258.69;;;14.96;nan
41234;BME280;26968;42.686;23.352;2023-02-16T12:16:34;96274.78;;;15.35;nan
41234;BME280;26968;42.686;23.352;2023-02-16T12:21:51;96265.72;;;15.31;nan
41234;BME280;26968;42.686;23.352;2023-02-16T12:27:24;96249.88;;;15.44;nan
41234;BME280;26968;42.686;23.352;2023-02-16T12:30:11;96248.19;;;15.59;nan
41234;BME280;26968;42.686;23.352;2023-02-16T12:36:34;96246.78;;;16.00;nan
41234;BME280;26968;42.686;23.352;2023-02-16T12:44:15;96184.00;;;15.20;nan
41234;BME280;26968;42.686;23.352;2023-02-16T12:46:44;96226.13;;;15.77;nan
41234;BME280;26968;42.686;23.352;2023-02-16T12:50:00;96224.59;;;16.00;nan
41234;BME280;26968;42.686;23.352;2023-02-16T12:52:40;96227.09;;;16.15;nan
41234;BME280;26968;42.686;23.352;2023-02-16T12:58:30;96142.16;;;16.02;nan
41234;BME280;26968;42.686;23.352;2023-02-16T13:03:14;96190.75;;;15.85;nan
41234;BME280;26968;42.686;23.352;2023-02-16T13:05:46;96189.06;;;16.18;nan
41234;BME280;26968;42.686;23.352;2023-02-16T13:08:25;96156.00;;;16.09;nan
41234;BME280;26968;42.686;23.352;2023-02-16T13:11:10;96157.06;;;16.08;nan
41234;BME280;26968;42.686;23.352;2023-02-16T13:13:39;96178.94;;;16.39;nan
41234;BME280;26968;42.686;23.352;2023-02-16T13:16:23;96190.38;;;16.44;nan
41234;BME280;26968;42.686;23.352;2023-02-16T13:18:52;96137.75;;;16.11;nan
41234;BME280;26968;42.686;23.352;2023-02-16T13:32:49;96182.97;;;16.60;nan
41234;BME280;26968;42.686;23.352;2023-02-16T13:44:09;96149.16;;;16.21;nan
41234;BME280;26968;42.686;23.352;2023-02-16T13:46:39;96139.13;;;15.85;nan
41234;BME280;26968;42.686;23.352;2023-02-16T13:49:26;96152.44;;;15.90;nan
41234;BME280;26968;42.686;23.352;2023-02-16T13:51:53;96050.13;;;15.21;nan
41234;BME280;26968;42.686;23.352;2023-02-16T13:54:27;96165.72;;;15.37;nan
41234;BME280;26968;42.686;23.352;2023-02-16T13:56:53;96165.13;;;15.45;nan
41234;BME280;26968;42.686;23.352;2023-02-16T14:01:50;96170.78;;;15.38;nan
41234;BME280;26968;42.686;23.352;2023-02-16T14:06:51;96111.88;;;14.86;nan
41234;BME280;26968;42.686;23.352;2023-02-16T14:12:15;96139.69;;;14.75;nan
41234;BME280;26968;42.686;23.352;2023-02-16T14:19:55;96125.84;;;14.08;nan
41234;BME280;26968;42.686;23.352;2023-02-16T14:22:34;96126.63;;;14.09;nan
41234;BME280;26968;42.686;23.352;2023-02-16T14:27:48;96153.59;;;14.02;nan
41234;BME280;26968;42.686;23.352;2023-02-16T14:30:34;96155.72;;;14.00;nan
41234;BME280;26968;42.686;23.352;2023-02-16T14:38:30;96150.44;;;13.80;nan
41234;BME280;26968;42.686;23.352;2023-02-16T14:40:58;96150.69;;;13.83;nan
41234;BME280;26968;42.686;23.352;2023-02-16T14:57:27;96132.84;;;12.98;nan
41234;BME280;26968;42.686;23.352;2023-02-16T15:00:20;96145.41;;;13.02;nan
41234;BME280;26968;42.686;23.352;2023-02-16T15:05:29;96082.53;;;12.86;nan
41234;BME280;26968;42.686;23.352;2023-02-16T15:08:17;96140.63;;;13.14;nan
41234;BME280;26968;42.686;23.352;2023-02-16T15:10:50;96124.59;;;12.99;nan
41234;BME280;26968;42.686;23.352;2023-02-16T15:13:29;96117.69;;;12.88;nan
41234;BME280;26968;42.686;23.352;2023-02-16T15:15:58;96145.66;;;13.01;nan
41234;BME280;26968;42.686;23.352;2023-02-16T15:18:47;96141.13;;;12.96;nan
41234;BME280;26968;42.686;23.352;2023-02-16T15:23:48;96144.50;;;12.66;nan
41234;BME280;26968;42.686;23.352;2023-02-16T15:26:24;62207.84;;;-143.51;100.00
41234;BME280;26968;42.686;23.352;2023-02-16T15:28:56;62207.84;;;-143.51;100.00
41234;BME280;26968;42.686;23.352;2023-02-16T15:33:59;62207.84;;;-143.51;100.00
41234;BME280;26968;42.686;23.352;2023-02-16T15:36:37;62207.84;;;-143.51;100.00
41234;BME280;26968;42.686;23.352;2023-02-16T15:39:05;62207.84;;;-143.51;100.00
41234;BME280;26968;42.686;23.352;2023-02-16T15:41:44;62207.84;;;-143.51;100.00
41234;BME280;26968;42.686;23.352;2023-02-16T15:44:33;62207.84;;;-143.51;100.00
41234;BME280;26968;42.686;23.352;2023-02-16T15:47:06;62207.84;;;-143.51;100.00
41234;BME280;26968;42.686;23.352;2023-02-16T15:49:32;96140.75;;;12.52;nan
41234;BME280;26968;42.686;23.352;2023-02-16T15:51:59;96132.03;;;10.62;nan
41234;BME280;26968;42.686;23.352;2023-02-16T15:54:27;96132.81;;;10.57;nan
41234;BME280;26968;42.686;23.352;2023-02-16T15:56:57;96068.34;;;10.08;nan
41234;BME280;26968;42.686;23.352;2023-02-16T15:59:31;96133.88;;;10.34;nan
41234;BME280;26968;42.686;23.352;2023-02-16T16:02:14;96091.78;;;9.94;nan
41234;BME280;26968;42.686;23.352;2023-02-16T16:04:49;96072.03;;;9.63;nan
41234;BME280;26968;42.686;23.352;2023-02-16T16:07:28;96105.06;;;9.78;nan
41234;BME280;26968;42.686;23.352;2023-02-16T16:09:56;96131.09;;;9.81;nan